sensor_id;sensor_type;location;lat;lon;timestamp;pressure;altitude;pressure_sealevel;temperature;humidity
9091;BME280;4581;42.416;25.598;2023-07-13T00:00:11;98477.56;;;25.41;82.18
9091;BME280;4581;42.416;25.598;2023-07-13T00:02:38;98481.44;;;25.35;82.63
9091;BME280;4581;42.416;25.598;2023-07-13T00:05:05;98475.09;;;25.34;82.63
9091;BME280;4581;42.416;25.598;2023-07-13T00:07:33;98470.94;;;25.27;82.06
9091;BME280;4581;42.416;25.598;2023-07-13T00:10:00;98473.94;;;25.15;82.46
9091;BME280;4581;42.416;25.598;2023-07-13T00:12:35;98468.41;;;25.15;82.60
9091;BME280;4581;42.416;25.598;2023-07-13T00:15:06;98467.56;;;25.14;82.77
9091;BME280;4581;42.416;25.598;2023-07-13T00:17:33;98469.25;;;25.15;83.08
9091;BME280;4581;42.416;25.598;2023-07-13T00:20:00;98466.47;;;25.21;83.79
9091;BME280;4581;42.416;25.598;2023-07-13T00:22:27;98467.84;;;25.18;82.93
9091;BME280;4581;42.416;25.598;2023-07-13T00:24:54;98460.38;;;25.13;83.23
9091;BME280;4581;42.416;25.598;2023-07-13T00:27:24;98461.78;;;25.11;83.95
9091;BME280;4581;42.416;25.598;2023-07-13T00:29:53;98457.09;;;25.11;83.39
9091;BME280;4581;42.416;25.598;2023-07-13T00:32:19;98456.78;;;25.08;84.38
9091;BME280;4581;42.416;25.598;2023-07-13T00:34:46;98452.38;;;25.12;84.01
9091;BME280;4581;42.416;25.598;2023-07-13T00:37:13;98451.81;;;25.05;84.10
9091;BME280;4581;42.416;25.598;2023-07-13T00:39:40;98441.56;;;25.00;84.24
9091;BME280;4581;42.416;25.598;2023-07-13T00:42:07;98444.34;;;25.00;84.46
9091;BME280;4581;42.416;25.598;2023-07-13T00:44:33;98437.97;;;24.90;85.11
9091;BME280;4581;42.416;25.598;2023-07-13T00:47:00;98436.84;;;24.86;85.46
9091;BME280;4581;42.416;25.598;2023-07-13T00:49:29;98433.25;;;24.85;85.09
9091;BME280;4581;42.416;25.598;2023-07-13T00:52:03;98436.53;;;24.82;84.97
9091;BME280;4581;42.416;25.598;2023-07-13T00:54:35;98439.28;;;24.82;85.35
9091;BME280;4581;42.416;25.598;2023-07-13T00:57:06;98428.19;;;24.72;85.58
9091;BME280;4581;42.416;25.598;2023-07-13T00:59:35;98442.25;;;24.76;86.01
9091;BME280;4581;42.416;25.598;2023-07-13T01:02:03;98436.50;;;24.77;86.02
9091;BME280;4581;42.416;25.598;2023-07-13T01:04:30;98437.31;;;24.78;86.34
9091;BME280;4581;42.416;25.598;2023-07-13T01:06:57;98446.97;;;24.75;86.33
9091;BME280;4581;42.416;25.598;2023-07-13T01:09:26;98441.97;;;24.72;85.87
9091;BME280;4581;42.416;25.598;2023-07-13T01:11:53;98440.34;;;24.71;86.05
9091;BME280;4581;42.416;25.598;2023-07-13T01:14:20;98443.06;;;24.66;86.78
9091;BME280;4581;42.416;25.598;2023-07-13T01:16:47;98438.63;;;24.65;87.90
9091;BME280;4581;42.416;25.598;2023-07-13T01:21:52;98446.38;;;24.63;86.80
9091;BME280;4581;42.416;25.598;2023-07-13T01:24:19;98444.94;;;24.55;86.92
9091;BME280;4581;42.416;25.598;2023-07-13T01:26:46;98440.78;;;24.53;86.99
9091;BME280;4581;42.416;25.598;2023-07-13T01:29:13;98442.72;;;24.52;87.17
9091;BME280;4581;42.416;25.598;2023-07-13T01:31:39;98438.31;;;24.51;87.27
9091;BME280;4581;42.416;25.598;2023-07-13T01:34:06;98437.19;;;24.52;86.90
9091;BME280;4581;42.416;25.598;2023-07-13T01:36:34;98440.53;;;24.54;86.54
9091;BME280;4581;42.416;25.598;2023-07-13T01:39:00;98449.63;;;24.55;86.39
9091;BME280;4581;42.416;25.598;2023-07-13T01:41:27;98444.63;;;24.52;86.85
9091;BME280;4581;42.416;25.598;2023-07-13T01:43:54;98448.47;;;24.46;87.82
9091;BME280;4581;42.416;25.598;2023-07-13T01:46:20;98452.84;;;24.42;87.88
9091;BME280;4581;42.416;25.598;2023-07-13T01:48:50;98438.53;;;24.45;87.56
9091;BME280;4581;42.416;25.598;2023-07-13T01:51:17;98440.72;;;24.38;87.79
9091;BME280;4581;42.416;25.598;2023-07-13T01:53:44;98447.25;;;24.32;88.12
9091;BME280;4581;42.416;25.598;2023-07-13T01:56:12;98443.38;;;24.28;88.83
9091;BME280;4581;42.416;25.598;2023-07-13T01:58:39;98450.25;;;24.25;89.31
9091;BME280;4581;42.416;25.598;2023-07-13T02:01:05;98448.88;;;24.22;88.84
9091;BME280;4581;42.416;25.598;2023-07-13T02:03:32;98454.41;;;24.28;87.90
9091;BME280;4581;42.416;25.598;2023-07-13T02:05:59;98433.41;;;24.16;88.79
9091;BME280;4581;42.416;25.598;2023-07-13T02:08:26;98458.47;;;24.15;89.30
9091;BME280;4581;42.416;25.598;2023-07-13T02:10:52;98445.47;;;24.10;89.98
9091;BME280;4581;42.416;25.598;2023-07-13T02:13:19;98452.59;;;24.11;90.19
9091;BME280;4581;42.416;25.598;2023-07-13T02:15:46;98445.47;;;24.10;90.01
9091;BME280;4581;42.416;25.598;2023-07-13T02:18:12;98446.78;;;24.08;90.21
9091;BME280;4581;42.416;25.598;2023-07-13T02:20:44;98446.78;;;24.08;90.21
9091;BME280;4581;42.416;25.598;2023-07-13T02:23:11;98449.31;;;24.09;90.47
9091;BME280;4581;42.416;25.598;2023-07-13T02:25:37;98450.13;;;24.10;90.62
9091;BME280;4581;42.416;25.598;2023-07-13T02:28:04;98445.72;;;24.09;90.37
9091;BME280;4581;42.416;25.598;2023-07-13T02:30:31;98447.63;;;24.08;90.22
9091;BME280;4581;42.416;25.598;2023-07-13T02:32:58;98458.34;;;24.05;90.43
9091;BME280;4581;42.416;25.598;2023-07-13T02:35:25;98458.66;;;24.08;90.41
9091;BME280;4581;42.416;25.598;2023-07-13T02:37:51;98454.88;;;24.14;89.81
9091;BME280;4581;42.416;25.598;2023-07-13T02:40:18;98459.72;;;24.02;90.48
9091;BME280;4581;42.416;25.598;2023-07-13T02:42:45;98455.31;;;24.01;90.30
9091;BME280;4581;42.416;25.598;2023-07-13T02:45:12;98456.38;;;24.00;91.01
9091;BME280;4581;42.416;25.598;2023-07-13T02:47:41;98458.59;;;23.98;91.58
9091;BME280;4581;42.416;25.598;2023-07-13T02:50:08;98458.00;;;23.96;91.44
9091;BME280;4581;42.416;25.598;2023-07-13T02:52:35;98449.78;;;24.01;91.43
9091;BME280;4581;42.416;25.598;2023-07-13T02:55:02;98451.97;;;23.99;91.75
9091;BME280;4581;42.416;25.598;2023-07-13T02:57:29;98460.22;;;23.99;91.15
9091;BME280;4581;42.416;25.598;2023-07-13T02:59:57;98452.25;;;23.98;90.68
9091;BME280;4581;42.416;25.598;2023-07-13T03:02:23;98462.44;;;23.97;91.03
9091;BME280;4581;42.416;25.598;2023-07-13T03:04:50;98459.69;;;23.97;91.02
9091;BME280;4581;42.416;25.598;2023-07-13T03:07:17;98466.28;;;23.96;90.92
9091;BME280;4581;42.416;25.598;2023-07-13T03:09:43;98465.72;;;23.99;91.17
9091;BME280;4581;42.416;25.598;2023-07-13T03:12:10;98459.19;;;24.05;90.34
9091;BME280;4581;42.416;25.598;2023-07-13T03:14:37;98456.97;;;24.02;90.33
9091;BME280;4581;42.416;25.598;2023-07-13T03:17:03;98458.53;;;23.93;90.89
9091;BME280;4581;42.416;25.598;2023-07-13T03:19:30;98457.47;;;23.99;91.38
9091;BME280;4581;42.416;25.598;2023-07-13T03:21:57;98463.88;;;24.05;91.26
9091;BME280;4581;42.416;25.598;2023-07-13T03:24:24;98457.81;;;24.08;91.69
9091;BME280;4581;42.416;25.598;2023-07-13T03:26:52;98457.56;;;24.09;91.76
9091;BME280;4581;42.416;25.598;2023-07-13T03:29:19;98460.06;;;24.11;91.17
9091;BME280;4581;42.416;25.598;2023-07-13T03:31:46;98468.13;;;24.17;91.24
9091;BME280;4581;42.416;25.598;2023-07-13T03:34:13;98463.81;;;24.32;90.23
9091;BME280;4581;42.416;25.598;2023-07-13T03:36:39;98461.09;;;24.37;89.54
9091;BME280;4581;42.416;25.598;2023-07-13T03:39:06;98469.31;;;24.32;90.21
9091;BME280;4581;42.416;25.598;2023-07-13T03:41:35;98463.50;;;24.23;90.98
9091;BME280;4581;42.416;25.598;2023-07-13T03:44:02;98469.25;;;24.21;92.08
9091;BME280;4581;42.416;25.598;2023-07-13T03:46:29;98464.88;;;24.26;91.67
9091;BME280;4581;42.416;25.598;2023-07-13T03:48:57;98468.41;;;24.21;91.63
9091;BME280;4581;42.416;25.598;2023-07-13T03:51:24;98463.78;;;24.27;91.75
9091;BME280;4581;42.416;25.598;2023-07-13T03:53:50;98456.88;;;24.24;91.62
9091;BME280;4581;42.416;25.598;2023-07-13T03:56:18;98469.31;;;24.27;91.96
9091;BME280;4581;42.416;25.598;2023-07-13T03:58:47;98461.88;;;24.32;92.84
9091;BME280;4581;42.416;25.598;2023-07-13T04:01:14;98459.75;;;24.39;93.13
9091;BME280;4581;42.416;25.598;2023-07-13T04:03:42;98466.63;;;24.42;92.99
9091;BME280;4581;42.416;25.598;2023-07-13T04:06:15;98460.88;;;24.48;93.00
9091;BME280;4581;42.416;25.598;2023-07-13T04:08:49;98471.09;;;24.53;92.47
9091;BME280;4581;42.416;25.598;2023-07-13T04:11:21;98465.06;;;24.56;92.97
9091;BME280;4581;42.416;25.598;2023-07-13T04:13:49;98472.28;;;24.62;92.88
9091;BME280;4581;42.416;25.598;2023-07-13T04:16:17;98469.56;;;24.72;92.69
9091;BME280;4581;42.416;25.598;2023-07-13T04:18:45;98459.13;;;24.79;92.51
9091;BME280;4581;42.416;25.598;2023-07-13T04:21:13;98464.72;;;24.89;92.10
9091;BME280;4581;42.416;25.598;2023-07-13T04:23:40;98460.31;;;24.93;91.37
9091;BME280;4581;42.416;25.598;2023-07-13T04:26:07;98471.41;;;25.03;91.13
9091;BME280;4581;42.416;25.598;2023-07-13T04:28:34;98471.41;;;25.03;90.76
9091;BME280;4581;42.416;25.598;2023-07-13T04:31:04;98475.28;;;25.12;90.25
9091;BME280;4581;42.416;25.598;2023-07-13T04:33:31;98472.56;;;25.23;89.73
9091;BME280;4581;42.416;25.598;2023-07-13T04:35:58;98479.78;;;25.34;88.92
9091;BME280;4581;42.416;25.598;2023-07-13T04:38:31;98479.81;;;25.49;87.47
9091;BME280;4581;42.416;25.598;2023-07-13T04:41:04;98480.38;;;25.56;85.99
9091;BME280;4581;42.416;25.598;2023-07-13T04:43:32;98484.84;;;25.62;85.36
9091;BME280;4581;42.416;25.598;2023-07-13T04:46:10;98488.72;;;25.71;83.84
9091;BME280;4581;42.416;25.598;2023-07-13T04:48:38;98500.59;;;25.77;82.85
9091;BME280;4581;42.416;25.598;2023-07-13T04:51:05;98488.72;;;25.81;83.70
9091;BME280;4581;42.416;25.598;2023-07-13T04:53:33;98490.09;;;25.89;84.14
9091;BME280;4581;42.416;25.598;2023-07-13T04:56:02;98492.06;;;26.03;83.31
9091;BME280;4581;42.416;25.598;2023-07-13T04:58:29;98491.78;;;26.15;82.76
9091;BME280;4581;42.416;25.598;2023-07-13T05:01:04;98497.31;;;26.25;81.03
9091;BME280;4581;42.416;25.598;2023-07-13T05:03:31;98502.84;;;26.40;80.87
9091;BME280;4581;42.416;25.598;2023-07-13T05:06:01;98503.41;;;26.47;82.25
9091;BME280;4581;42.416;25.598;2023-07-13T05:08:28;98502.28;;;26.53;80.38
9091;BME280;4581;42.416;25.598;2023-07-13T05:10:54;98509.16;;;26.66;80.22
9091;BME280;4581;42.416;25.598;2023-07-13T05:13:22;98503.31;;;26.78;79.56
9091;BME280;4581;42.416;25.598;2023-07-13T05:15:56;98505.22;;;26.92;79.62
9091;BME280;4581;42.416;25.598;2023-07-13T05:18:24;98510.50;;;26.99;78.78
9091;BME280;4581;42.416;25.598;2023-07-13T05:21:06;98507.50;;;26.70;78.13
9091;BME280;4581;42.416;25.598;2023-07-13T05:23:34;98504.47;;;26.72;78.70
9091;BME280;4581;42.416;25.598;2023-07-13T05:26:01;98506.09;;;26.83;79.43
9091;BME280;4581;42.416;25.598;2023-07-13T05:28:30;98515.13;;;27.09;77.92
9091;BME280;4581;42.416;25.598;2023-07-13T05:30:57;98517.81;;;27.34;77.89
9091;BME280;4581;42.416;25.598;2023-07-13T05:33:24;98509.84;;;27.17;76.78
9091;BME280;4581;42.416;25.598;2023-07-13T05:35:51;98506.28;;;27.12;77.11
9091;BME280;4581;42.416;25.598;2023-07-13T05:38:18;98513.88;;;27.45;75.54
9091;BME280;4581;42.416;25.598;2023-07-13T05:40:45;98521.50;;;27.73;74.35
9091;BME280;4581;42.416;25.598;2023-07-13T05:43:13;98516.88;;;27.98;74.71
9091;BME280;4581;42.416;25.598;2023-07-13T05:45:40;98523.69;;;28.20;73.17
9091;BME280;4581;42.416;25.598;2023-07-13T05:48:06;98514.19;;;28.26;70.54
9091;BME280;4581;42.416;25.598;2023-07-13T05:50:33;98518.31;;;28.29;72.86
9091;BME280;4581;42.416;25.598;2023-07-13T05:53:00;98521.16;;;28.53;70.61
9091;BME280;4581;42.416;25.598;2023-07-13T05:55:27;98517.47;;;28.62;72.14
9091;BME280;4581;42.416;25.598;2023-07-13T05:57:53;98518.28;;;28.34;73.23
9091;BME280;4581;42.416;25.598;2023-07-13T06:00:20;98516.38;;;27.96;73.61
9091;BME280;4581;42.416;25.598;2023-07-13T06:02:47;98523.66;;;28.54;71.01
9091;BME280;4581;42.416;25.598;2023-07-13T06:05:14;98525.16;;;28.75;71.62
9091;BME280;4581;42.416;25.598;2023-07-13T06:07:41;98531.44;;;28.23;71.15
9091;BME280;4581;42.416;25.598;2023-07-13T06:10:08;98535.06;;;28.81;69.93
9091;BME280;4581;42.416;25.598;2023-07-13T06:12:35;98527.78;;;28.86;70.39
9091;BME280;4581;42.416;25.598;2023-07-13T06:15:02;98527.38;;;28.45;68.07
9091;BME280;4581;42.416;25.598;2023-07-13T06:17:30;98534.78;;;28.83;68.85
9091;BME280;4581;42.416;25.598;2023-07-13T06:19:57;98535.66;;;29.26;68.02
9091;BME280;4581;42.416;25.598;2023-07-13T06:22:23;98535.16;;;29.48;67.94
9091;BME280;4581;42.416;25.598;2023-07-13T06:24:51;98535.53;;;29.79;64.40
9091;BME280;4581;42.416;25.598;2023-07-13T06:27:18;98527.00;;;29.94;69.34
9091;BME280;4581;42.416;25.598;2023-07-13T06:29:45;98535.84;;;30.14;64.79
9091;BME280;4581;42.416;25.598;2023-07-13T06:32:11;98529.75;;;30.31;63.51
9091;BME280;4581;42.416;25.598;2023-07-13T06:34:38;98532.84;;;30.62;65.02
9091;BME280;4581;42.416;25.598;2023-07-13T06:37:09;98533.22;;;30.88;67.04
9091;BME280;4581;42.416;25.598;2023-07-13T06:39:36;98529.81;;;30.91;63.65
9091;BME280;4581;42.416;25.598;2023-07-13T06:42:03;98512.13;;;29.85;65.27
9091;BME280;4581;42.416;25.598;2023-07-13T06:44:30;98514.97;;;30.49;64.83
9091;BME280;4581;42.416;25.598;2023-07-13T06:46:57;98507.81;;;30.76;64.47
9091;BME280;4581;42.416;25.598;2023-07-13T06:49:23;98518.28;;;31.11;62.57
9091;BME280;4581;42.416;25.598;2023-07-13T06:51:50;98514.13;;;30.95;61.36
9091;BME280;4581;42.416;25.598;2023-07-13T06:54:17;98522.13;;;31.01;63.94
9091;BME280;4581;42.416;25.598;2023-07-13T06:56:43;98516.84;;;31.27;60.98
9091;BME280;4581;42.416;25.598;2023-07-13T06:59:10;98509.41;;;31.64;64.25
9091;BME280;4581;42.416;25.598;2023-07-13T07:01:36;98509.00;;;31.56;60.11
9091;BME280;4581;42.416;25.598;2023-07-13T07:04:07;98508.38;;;31.95;63.24
9091;BME280;4581;42.416;25.598;2023-07-13T07:06:34;98517.03;;;32.08;56.70
9091;BME280;4581;42.416;25.598;2023-07-13T07:09:00;98519.53;;;32.31;55.81
9091;BME280;4581;42.416;25.598;2023-07-13T07:11:27;98514.88;;;32.27;56.80
9091;BME280;4581;42.416;25.598;2023-07-13T07:13:54;98524.78;;;32.11;60.06
9091;BME280;4581;42.416;25.598;2023-07-13T07:16:22;98506.69;;;32.53;58.80
9091;BME280;4581;42.416;25.598;2023-07-13T07:18:49;98519.38;;;32.81;56.66
9091;BME280;4581;42.416;25.598;2023-07-13T07:21:15;98512.03;;;32.93;54.39
9091;BME280;4581;42.416;25.598;2023-07-13T07:23:43;98528.28;;;33.22;54.04
9091;BME280;4581;42.416;25.598;2023-07-13T07:26:09;98521.69;;;33.18;52.08
9091;BME280;4581;42.416;25.598;2023-07-13T07:28:36;98517.00;;;33.45;53.40
9091;BME280;4581;42.416;25.598;2023-07-13T07:31:06;98515.50;;;33.30;58.26
9091;BME280;4581;42.416;25.598;2023-07-13T07:33:36;98518.19;;;33.61;54.15
9091;BME280;4581;42.416;25.598;2023-07-13T07:36:04;98519.44;;;33.94;52.15
9091;BME280;4581;42.416;25.598;2023-07-13T07:38:34;98520.09;;;34.08;50.06
9091;BME280;4581;42.416;25.598;2023-07-13T07:41:03;98515.34;;;33.35;54.78
9091;BME280;4581;42.416;25.598;2023-07-13T07:43:34;98518.25;;;33.69;50.33
9091;BME280;4581;42.416;25.598;2023-07-13T07:46:01;98516.47;;;33.82;52.62
9091;BME280;4581;42.416;25.598;2023-07-13T07:48:29;98512.59;;;33.52;50.51
9091;BME280;4581;42.416;25.598;2023-07-13T07:50:56;98497.88;;;33.86;53.74
9091;BME280;4581;42.416;25.598;2023-07-13T07:53:23;98510.84;;;34.08;50.86
9091;BME280;4581;42.416;25.598;2023-07-13T07:55:49;98521.06;;;34.12;49.63
9091;BME280;4581;42.416;25.598;2023-07-13T07:58:20;98505.59;;;34.23;51.92
9091;BME280;4581;42.416;25.598;2023-07-13T08:00:50;98498.19;;;34.36;51.95
9091;BME280;4581;42.416;25.598;2023-07-13T08:03:20;98496.22;;;34.37;52.10
9091;BME280;4581;42.416;25.598;2023-07-13T08:05:53;98501.97;;;34.40;47.08
9091;BME280;4581;42.416;25.598;2023-07-13T08:08:23;98503.94;;;34.65;47.72
9091;BME280;4581;42.416;25.598;2023-07-13T08:10:50;98495.84;;;34.47;48.36
9091;BME280;4581;42.416;25.598;2023-07-13T08:13:21;98499.81;;;34.46;48.77
9091;BME280;4581;42.416;25.598;2023-07-13T08:15:48;98499.16;;;34.49;46.65
9091;BME280;4581;42.416;25.598;2023-07-13T08:18:16;98501.44;;;34.47;46.25
9091;BME280;4581;42.416;25.598;2023-07-13T08:20:42;98493.44;;;34.02;49.68
9091;BME280;4581;42.416;25.598;2023-07-13T08:23:09;98496.53;;;34.44;47.90
9091;BME280;4581;42.416;25.598;2023-07-13T08:25:36;98497.00;;;34.54;55.59
9091;BME280;4581;42.416;25.598;2023-07-13T08:28:04;98497.19;;;34.49;50.15
9091;BME280;4581;42.416;25.598;2023-07-13T08:30:31;98499.00;;;34.45;46.60
9091;BME280;4581;42.416;25.598;2023-07-13T08:32:57;98498.88;;;34.24;46.55
9091;BME280;4581;42.416;25.598;2023-07-13T08:35:24;98506.28;;;34.29;45.92
9091;BME280;4581;42.416;25.598;2023-07-13T08:37:52;98498.50;;;34.35;46.67
9091;BME280;4581;42.416;25.598;2023-07-13T08:40:23;98505.91;;;34.48;45.44
9091;BME280;4581;42.416;25.598;2023-07-13T08:42:57;98499.75;;;34.63;47.35
9091;BME280;4581;42.416;25.598;2023-07-13T08:45:36;98506.56;;;34.62;47.92
9091;BME280;4581;42.416;25.598;2023-07-13T08:48:27;98499.56;;;34.94;46.14
9091;BME280;4581;42.416;25.598;2023-07-13T08:50:56;98505.63;;;34.96;42.54
9091;BME280;4581;42.416;25.598;2023-07-13T08:53:47;98499.88;;;34.92;44.37
9091;BME280;4581;42.416;25.598;2023-07-13T08:56:33;98497.31;;;35.16;48.14
9091;BME280;4581;42.416;25.598;2023-07-13T08:59:27;98495.34;;;35.08;43.38
9091;BME280;4581;42.416;25.598;2023-07-13T09:04:54;98486.53;;;34.89;39.70
9091;BME280;4581;42.416;25.598;2023-07-13T09:10:32;98485.13;;;35.71;38.93
9091;BME280;4581;42.416;25.598;2023-07-13T09:13:30;98481.88;;;35.90;37.42
9091;BME280;4581;42.416;25.598;2023-07-13T09:16:01;98482.84;;;35.94;38.81
9091;BME280;4581;42.416;25.598;2023-07-13T09:18:38;98494.88;;;35.94;36.68
9091;BME280;4581;42.416;25.598;2023-07-13T09:23:40;98488.81;;;36.46;34.12
9091;BME280;4581;42.416;25.598;2023-07-13T09:26:13;98485.72;;;36.27;36.70
9091;BME280;4581;42.416;25.598;2023-07-13T09:28:44;98480.81;;;36.36;37.90
9091;BME280;4581;42.416;25.598;2023-07-13T09:31:17;98480.69;;;36.32;34.97
9091;BME280;4581;42.416;25.598;2023-07-13T09:33:48;98476.28;;;36.55;35.60
9091;BME280;4581;42.416;25.598;2023-07-13T09:36:23;98467.38;;;36.41;34.39
9091;BME280;4581;42.416;25.598;2023-07-13T09:44:35;98452.28;;;35.92;37.63
9091;BME280;4581;42.416;25.598;2023-07-13T09:47:03;98447.59;;;36.38;37.58
9091;BME280;4581;42.416;25.598;2023-07-13T09:49:34;98440.84;;;36.51;35.70
9091;BME280;4581;42.416;25.598;2023-07-13T09:52:06;98444.19;;;37.01;32.19
9091;BME280;4581;42.416;25.598;2023-07-13T09:54:35;98439.16;;;36.83;35.19
9091;BME280;4581;42.416;25.598;2023-07-13T09:57:04;98441.03;;;37.03;34.18
9091;BME280;4581;42.416;25.598;2023-07-13T09:59:42;98428.72;;;37.32;35.26
9091;BME280;4581;42.416;25.598;2023-07-13T10:07:27;98421.66;;;37.74;30.14
9091;BME280;4581;42.416;25.598;2023-07-13T10:10:01;98419.63;;;37.87;32.90
9091;BME280;4581;42.416;25.598;2023-07-13T10:12:30;98430.34;;;37.69;30.00
9091;BME280;4581;42.416;25.598;2023-07-13T10:15:02;98423.56;;;37.58;29.85
9091;BME280;4581;42.416;25.598;2023-07-13T10:17:50;98411.72;;;37.40;33.06
9091;BME280;4581;42.416;25.598;2023-07-13T10:20:18;98417.56;;;37.60;31.54
9091;BME280;4581;42.416;25.598;2023-07-13T10:25:30;98401.13;;;37.74;31.46
9091;BME280;4581;42.416;25.598;2023-07-13T10:30:53;98413.09;;;38.11;29.86
9091;BME280;4581;42.416;25.598;2023-07-13T10:33:21;98409.03;;;37.84;32.88
9091;BME280;4581;42.416;25.598;2023-07-13T10:35:51;98412.13;;;38.19;28.76
9091;BME280;4581;42.416;25.598;2023-07-13T10:38:22;98400.97;;;38.38;30.86
9091;BME280;4581;42.416;25.598;2023-07-13T10:43:28;98397.75;;;38.24;32.45
9091;BME280;4581;42.416;25.598;2023-07-13T10:45:59;98400.13;;;38.37;30.80
9091;BME280;4581;42.416;25.598;2023-07-13T10:48:27;98399.47;;;38.28;27.85
9091;BME280;4581;42.416;25.598;2023-07-13T10:50:56;98401.09;;;38.57;27.06
9091;BME280;4581;42.416;25.598;2023-07-13T10:53:30;98392.63;;;38.57;29.05
9091;BME280;4581;42.416;25.598;2023-07-13T10:56:00;98393.38;;;38.54;29.00
9091;BME280;4581;42.416;25.598;2023-07-13T10:58:37;98385.41;;;38.88;27.71
9091;BME280;4581;42.416;25.598;2023-07-13T11:01:18;98385.75;;;38.70;27.81
9091;BME280;4581;42.416;25.598;2023-07-13T11:04:00;98394.28;;;38.58;26.82
9091;BME280;4581;42.416;25.598;2023-07-13T11:09:33;98396.22;;;38.85;26.03
9091;BME280;4581;42.416;25.598;2023-07-13T11:12:02;98382.25;;;39.24;26.92
9091;BME280;4581;42.416;25.598;2023-07-13T11:15:00;98372.88;;;39.20;29.10
9091;BME280;4581;42.416;25.598;2023-07-13T11:17:35;98379.44;;;39.24;29.52
9091;BME280;4581;42.416;25.598;2023-07-13T11:22:53;98386.34;;;39.81;26.63
9091;BME280;4581;42.416;25.598;2023-07-13T11:25:34;98382.88;;;39.87;27.37
9091;BME280;4581;42.416;25.598;2023-07-13T11:33:17;98369.66;;;39.56;28.47
9091;BME280;4581;42.416;25.598;2023-07-13T11:36:12;98367.25;;;39.55;28.44
9091;BME280;4581;42.416;25.598;2023-07-13T11:38:39;98378.72;;;39.81;29.95
9091;BME280;4581;42.416;25.598;2023-07-13T11:43:53;98365.97;;;40.10;27.93
9091;BME280;4581;42.416;25.598;2023-07-13T11:46:23;98376.63;;;40.16;28.02
9091;BME280;4581;42.416;25.598;2023-07-13T11:48:51;98369.25;;;40.12;27.94
9091;BME280;4581;42.416;25.598;2023-07-13T11:51:31;98373.00;;;39.78;28.43
9091;BME280;4581;42.416;25.598;2023-07-13T11:54:02;98370.16;;;39.97;29.57
9091;BME280;4581;42.416;25.598;2023-07-13T11:56:30;98370.31;;;40.23;28.19
9091;BME280;4581;42.416;25.598;2023-07-13T11:59:04;98365.28;;;40.36;28.35
9091;BME280;4581;42.416;25.598;2023-07-13T12:01:33;98356.06;;;40.16;28.52
9091;BME280;4581;42.416;25.598;2023-07-13T12:04:03;98357.94;;;40.31;27.47
9091;BME280;4581;42.416;25.598;2023-07-13T12:06:32;98357.38;;;40.03;27.46
9091;BME280;4581;42.416;25.598;2023-07-13T12:09:01;98344.25;;;40.14;26.61
9091;BME280;4581;42.416;25.598;2023-07-13T12:11:30;98347.56;;;40.16;26.78
9091;BME280;4581;42.416;25.598;2023-07-13T12:14:01;98344.34;;;40.17;27.67
9091;BME280;4581;42.416;25.598;2023-07-13T12:16:32;98336.22;;;40.35;28.88
9091;BME280;4581;42.416;25.598;2023-07-13T12:19:00;98337.28;;;40.73;27.82
9091;BME280;4581;42.416;25.598;2023-07-13T12:21:38;98345.97;;;40.60;25.68
9091;BME280;4581;42.416;25.598;2023-07-13T12:24:14;98341.34;;;40.30;26.53
9091;BME280;4581;42.416;25.598;2023-07-13T12:26:41;98331.06;;;39.99;27.75
9091;BME280;4581;42.416;25.598;2023-07-13T12:29:08;98325.66;;;40.13;27.45
9091;BME280;4581;42.416;25.598;2023-07-13T12:31:45;98322.25;;;40.23;26.41
9091;BME280;4581;42.416;25.598;2023-07-13T12:34:15;98322.63;;;39.80;30.01
9091;BME280;4581;42.416;25.598;2023-07-13T12:36:51;98316.97;;;39.80;28.56
9091;BME280;4581;42.416;25.598;2023-07-13T12:39:22;98313.94;;;40.11;27.37
9091;BME280;4581;42.416;25.598;2023-07-13T12:41:51;98309.78;;;40.05;29.47
9091;BME280;4581;42.416;25.598;2023-07-13T12:44:27;98304.28;;;40.12;29.64
9091;BME280;4581;42.416;25.598;2023-07-13T12:47:04;98302.50;;;40.04;30.22
9091;BME280;4581;42.416;25.598;2023-07-13T12:49:33;98296.03;;;39.26;29.11
9091;BME280;4581;42.416;25.598;2023-07-13T12:52:09;98294.44;;;39.64;30.06
9091;BME280;4581;42.416;25.598;2023-07-13T12:54:38;98296.88;;;39.46;28.64
9091;BME280;4581;42.416;25.598;2023-07-13T12:57:16;98299.69;;;39.46;29.49
9091;BME280;4581;42.416;25.598;2023-07-13T12:59:43;98291.09;;;39.58;27.95
9091;BME280;4581;42.416;25.598;2023-07-13T13:02:30;98296.75;;;39.39;28.29
9091;BME280;4581;42.416;25.598;2023-07-13T13:04:58;98291.25;;;39.46;27.52
9091;BME280;4581;42.416;25.598;2023-07-13T13:07:25;98288.69;;;38.40;29.17
9091;BME280;4581;42.416;25.598;2023-07-13T13:09:52;98286.59;;;38.68;29.70
9091;BME280;4581;42.416;25.598;2023-07-13T13:12:20;98281.56;;;38.93;29.01
9091;BME280;4581;42.416;25.598;2023-07-13T13:14:47;98283.78;;;39.19;27.85
9091;BME280;4581;42.416;25.598;2023-07-13T13:17:28;98273.44;;;39.07;29.48
9091;BME280;4581;42.416;25.598;2023-07-13T13:19:56;98269.53;;;38.96;30.16
9091;BME280;4581;42.416;25.598;2023-07-13T13:22:23;98264.91;;;39.04;29.46
9091;BME280;4581;42.416;25.598;2023-07-13T13:24:50;98270.59;;;38.72;28.99
9091;BME280;4581;42.416;25.598;2023-07-13T13:27:18;98258.41;;;38.68;29.04
9091;BME280;4581;42.416;25.598;2023-07-13T13:29:47;98259.16;;;38.65;29.37
9091;BME280;4581;42.416;25.598;2023-07-13T13:32:16;98258.31;;;38.65;32.13
9091;BME280;4581;42.416;25.598;2023-07-13T13:34:43;98247.88;;;38.65;30.55
9091;BME280;4581;42.416;25.598;2023-07-13T13:37:25;98247.75;;;38.77;28.99
9091;BME280;4581;42.416;25.598;2023-07-13T13:39:52;98245.94;;;38.69;29.83
9091;BME280;4581;42.416;25.598;2023-07-13T13:42:33;98242.69;;;38.67;29.38
9091;BME280;4581;42.416;25.598;2023-07-13T13:45:00;98243.75;;;38.44;30.54
9091;BME280;4581;42.416;25.598;2023-07-13T13:47:34;98245.63;;;38.55;28.90
9091;BME280;4581;42.416;25.598;2023-07-13T13:50:16;98228.34;;;38.25;29.19
9091;BME280;4581;42.416;25.598;2023-07-13T13:52:43;98228.91;;;38.00;30.90
9091;BME280;4581;42.416;25.598;2023-07-13T13:55:19;98227.38;;;38.18;32.20
9091;BME280;4581;42.416;25.598;2023-07-13T13:57:47;98231.63;;;38.27;29.75
9091;BME280;4581;42.416;25.598;2023-07-13T14:00:16;98222.53;;;38.18;30.06
9091;BME280;4581;42.416;25.598;2023-07-13T14:02:47;98223.81;;;38.21;29.02
9091;BME280;4581;42.416;25.598;2023-07-13T14:05:22;98224.38;;;38.11;28.98